CheckWX is a tool to help pilots better visualize weather data.  It is not intended as a substitute for an official pre-flight weather briefing.

14:43:32 UTC

ESND METAR
Sveg Airport
Sweden
Current

24 mins ago

ESND 201420Z AUTO 13006KT 090V170 9999 OVC080/// 19/08 Q1013
Observed
May-20 @ 14:20 UTC
Wind
  • 130° at 6 KTS
Visibility
10,000+ meters
Flight Rules
VFR
Cloud Levels
  • Overcast at 8,000' AGL
Temperature
19°C / 66°F
Dewpoint
C / 46°F
Humidity
49%
Altimeter
29.91" Hg
Pressure
1012.92 hPa
Previous

54 mins ago

ESND 201350Z AUTO 12003KT 060V180 9999 FEW066/// SCT090/// 20/07 Q1013
Observed
May-20 @ 13:50 UTC
Wind
  • 120° at 3 KTS
Visibility
10,000+ meters
Flight Rules
VFR
Cloud Levels
  • Few at 6,600' AGL
  • Scattered at 9,000' AGL
Temperature
20°C / 68°F
Dewpoint
C / 45°F
Humidity
43%
Altimeter
29.91" Hg
Pressure
1012.92 hPa
Previous

1 hour ago

ESND 201320Z AUTO 18004KT 120V220 9999 FEW078/// SCT098/// 20/07 Q1013
Observed
May-20 @ 13:20 UTC
Wind
  • 180° at 4 KTS
Visibility
10,000+ meters
Flight Rules
VFR
Cloud Levels
  • Few at 7,800' AGL
  • Scattered at 9,800' AGL
Temperature
20°C / 68°F
Dewpoint
C / 45°F
Humidity
43%
Altimeter
29.91" Hg
Pressure
1012.92 hPa